| time (UTC) | temp C | wind direction | speed KPH | gust KPH | rain 1hr cm | rain 24hr cm | rain mn cm | humidity % | barometer mb |
| 20260507210500 | 16 | 101 | 0.0 | 1.6 | 0.00 | 0.00 | 0.00 | 80 | 1016.7 |
| 20260507210005 | 16 | 101 | 0.0 | 3.2 | 0.00 | 0.00 | 0.00 | 80 | 1016.6 |
| 20260507205504 | 16 | 101 | 0.0 | 3.2 | 0.00 | 0.00 | 0.00 | 80 | 1016.5 |
| 20260507205002 | 16 | 101 | 0.0 | 3.2 | 0.00 | 0.00 | 0.00 | 80 | 1016.4 |
| 20260507204503 | 16 | 101 | 0.0 | 3.2 | 0.00 | 0.00 | 0.00 | 80 | 1016.4 |
| 20260507204003 | 16 | 101 | 0.0 | 1.6 | 0.00 | 0.00 | 0.00 | 80 | 1016.4 |
| 20260507203503 | 16 | 101 | 0.0 | 1.6 | 0.00 | 0.00 | 0.00 | 80 | 1016.3 |
| 20260507203003 | 16 | 101 | 0.0 | 3.2 | 0.00 | 0.00 | 0.00 | 80 | 1016.4 |
| 20260507202503 | 16 | 101 | 0.0 | 3.2 | 0.00 | 0.00 | 0.00 | 80 | 1016.3 |
| 20260507202004 | 16 | 5 | 0.0 | 1.6 | 0.00 | 0.00 | 0.00 | 80 | 1016.4 |
| 20260507201503 | 16 | 5 | 0.0 | 1.6 | 0.00 | 0.00 | 0.00 | 80 | 1016.3 |
| 20260507201002 | 16 | 5 | 0.0 | 1.6 | 0.00 | 0.00 | 0.00 | 79 | 1016.2 |
| 20260507200503 | 16 | 5 | 0.0 | 1.6 | 0.00 | 0.00 | 0.00 | 78 | 1016.2 |
| 20260507200003 | 16 | 5 | 0.0 | 1.6 | 0.00 | 0.00 | 0.00 | 78 | 1016.1 |
| 20260507195501 | 16 | 5 | 0.0 | 1.6 | 0.00 | 0.00 | 0.00 | 77 | 1016.1 |
| 20260507195003 | 16 | 5 | 0.0 | 0.0 | 0.00 | 0.00 | 0.00 | 77 | 1016.1 |
| 20260507194002 | 16 | 5 | 0.0 | 1.6 | 0.00 | 0.00 | 0.00 | 77 | 1016.0 |
| 20260507193503 | 16 | 5 | 0.0 | 1.6 | 0.00 | 0.00 | 0.00 | 76 | 1015.9 |
| 20260507193001 | 16 | 5 | 0.0 | 1.6 | 0.00 | 0.00 | 0.00 | 76 | 1015.8 |
| 20260507192503 | 16 | 5 | 0.0 | 1.6 | 0.00 | 0.00 | 0.00 | 76 | 1015.9 |
| 20260507192003 | 17 | 5 | 1.6 | 4.8 | 0.00 | 0.00 | 0.00 | 76 | 1015.9 |
| 20260507191502 | 17 | 5 | 1.6 | 4.8 | 0.00 | 0.00 | 0.00 | 76 | 1015.8 |
| 20260507190503 | 17 | 5 | 1.6 | 4.8 | 0.00 | 0.00 | 0.00 | 76 | 1015.8 |
| 20260507190005 | 17 | 10 | 1.6 | 4.8 | 0.00 | 0.00 | 0.00 | 76 | 1015.8 |
| 20260507185500 | 17 | 10 | 0.0 | 4.8 | 0.00 | 0.00 | 0.00 | 75 | 1015.8 |
| 20260507185000 | 17 | 5 | 0.0 | 4.8 | 0.00 | 0.00 | 0.00 | 75 | 1015.8 |
| 20260507184501 | 17 | 16 | 0.0 | 4.8 | 0.00 | 0.00 | 0.00 | 75 | 1015.8 |
| 20260507184003 | 17 | 274 | 0.0 | 0.0 | 0.00 | 0.00 | 0.00 | 75 | 1015.7 |
| 20260507183504 | 17 | 274 | 0.0 | 0.0 | 0.00 | 0.00 | 0.00 | 75 | 1015.7 |
| 20260507182503 | 17 | 274 | 0.0 | 0.0 | 0.00 | 0.00 | 0.00 | 75 | 1015.8 |
| 20260507182003 | 17 | 274 | 0.0 | 0.0 | 0.00 | 0.00 | 0.00 | 74 | 1015.7 |
| 20260507181003 | 17 | 274 | 1.6 | 6.4 | 0.00 | 0.00 | 0.00 | 73 | 1015.8 |
| 20260507180503 | 17 | 294 | 3.2 | 8.0 | 0.00 | 0.00 | 0.00 | 73 | 1015.8 |
| 20260507175500 | 17 | 298 | 1.6 | 8.0 | 0.00 | 0.00 | 0.00 | 73 | 1015.8 |
| 20260507175003 | 18 | 276 | 1.6 | 6.4 | 0.00 | 0.00 | 0.00 | 74 | 1015.8 |
| 20260507174503 | 18 | 275 | 1.6 | 6.4 | 0.00 | 0.00 | 0.00 | 74 | 1015.8 |
| 20260507174003 | 18 | 285 | 1.6 | 6.4 | 0.00 | 0.00 | 0.00 | 73 | 1015.8 |
| 20260507173000 | 18 | 294 | 3.2 | 6.4 | 0.00 | 0.00 | 0.00 | 73 | 1015.6 |
| 20260507172500 | 18 | 275 | 3.2 | 6.4 | 0.00 | 0.00 | 0.00 | 72 | 1015.6 |
| 20260507171003 | 18 | 258 | 3.2 | 4.8 | 0.00 | 0.00 | 0.00 | 71 | 1015.5 |
| 20260507170502 | 18 | 232 | 4.8 | 6.4 | 0.00 | 0.00 | 0.00 | 71 | 1015.4 |
| 20260507170003 | 19 | 246 | 4.8 | 9.7 | 0.00 | 0.00 | 0.00 | 71 | 1015.5 |
| 20260507165503 | 19 | 264 | 4.8 | 8.0 | 0.00 | 0.00 | 0.00 | 71 | 1015.5 |
| 20260507165000 | 19 | 264 | 3.2 | 4.8 | 0.00 | 0.00 | 0.00 | 69 | 1015.6 |
| 20260507164502 | 19 | 257 | 1.6 | 4.8 | 0.00 | 0.00 | 0.00 | 69 | 1015.3 |
| 20260507164001 | 20 | 281 | 1.6 | 4.8 | 0.00 | 0.00 | 0.00 | 68 | 1015.3 |
| 20260507163503 | 20 | 289 | 0.0 | 3.2 | 0.00 | 0.00 | 0.00 | 68 | 1015.2 |
| 20260507163003 | 20 | 279 | 1.6 | 9.7 | 0.00 | 0.00 | 0.00 | 67 | 1015.1 |
| 20260507162503 | 20 | 293 | 3.2 | 9.7 | 0.00 | 0.00 | 0.00 | 66 | 1015.2 |
| 20260507162003 | 20 | 287 | 3.2 | 6.4 | 0.00 | 0.00 | 0.00 | 66 | 1015.2 |
| 20260507161502 | 20 | 292 | 3.2 | 6.4 | 0.00 | 0.00 | 0.00 | 66 | 1015.1 |
| 20260507161003 | 20 | 286 | 3.2 | 6.4 | 0.00 | 0.00 | 0.00 | 65 | 1015.1 |
| 20260507160513 | 20 | 266 | 3.2 | 4.8 | 0.00 | 0.00 | 0.00 | 65 | 1015.1 |
| 20260507160004 | 20 | 250 | 3.2 | 6.4 | 0.00 | 0.00 | 0.00 | 65 | 1015.1 |
| 20260507155500 | 20 | 290 | 3.2 | 6.4 | 0.00 | 0.00 | 0.00 | 65 | 1015.1 |
| 20260507154503 | 21 | 259 | 4.8 | 14.5 | 0.00 | 0.00 | 0.00 | 63 | 1015.2 |
| 20260507154003 | 21 | 265 | 6.4 | 14.5 | 0.00 | 0.00 | 0.00 | 63 | 1015.2 |
| 20260507153003 | 21 | 270 | 6.4 | 14.5 | 0.00 | 0.00 | 0.00 | 63 | 1015.0 |
| 20260507152003 | 21 | 243 | 9.7 | 19.3 | 0.00 | 0.00 | 0.00 | 62 | 1015.1 |
| 20260507151502 | 21 | 250 | 9.7 | 19.3 | 0.00 | 0.00 | 0.00 | 61 | 1015.2 |
| 20260507151003 | 21 | 253 | 6.4 | 16.1 | 0.00 | 0.00 | 0.00 | 60 | 1015.2 |
| 20260507150503 | 21 | 269 | 6.4 | 14.5 | 0.00 | 0.00 | 0.00 | 62 | 1015.2 |
| 20260507150005 | 21 | 243 | 6.4 | 14.5 | 0.00 | 0.00 | 0.00 | 62 | 1015.1 |
| 20260507145503 | 21 | 254 | 1.6 | 11.3 | 0.00 | 0.00 | 0.00 | 63 | 1015.1 |
| 20260507145002 | 21 | 255 | 1.6 | 6.4 | 0.00 | 0.00 | 0.00 | 65 | 1015.0 |
| 20260507144500 | 21 | 269 | 3.2 | 6.4 | 0.00 | 0.00 | 0.00 | 63 | 1015.1 |
| 20260507144002 | 21 | 308 | 3.2 | 6.4 | 0.00 | 0.00 | 0.00 | 62 | 1015.1 |
| 20260507143500 | 21 | 246 | 3.2 | 11.3 | 0.00 | 0.00 | 0.00 | 63 | 1015.1 |
| 20260507143000 | 21 | 284 | 4.8 | 14.5 | 0.00 | 0.00 | 0.00 | 63 | 1015.0 |
| 20260507142502 | 22 | 241 | 4.8 | 14.5 | 0.00 | 0.00 | 0.00 | 62 | 1015.0 |
| 20260507142003 | 22 | 273 | 4.8 | 11.3 | 0.00 | 0.00 | 0.00 | 63 | 1015.1 |
| 20260507141500 | 22 | 264 | 4.8 | 11.3 | 0.00 | 0.00 | 0.00 | 62 | 1015.2 |
| 20260507141000 | 21 | 294 | 4.8 | 8.0 | 0.00 | 0.00 | 0.00 | 63 | 1015.3 |
| 20260507140000 | 21 | 284 | 3.2 | 8.0 | 0.00 | 0.00 | 0.00 | 65 | 1015.4 |
| 20260507135502 | 21 | 277 | 4.8 | 8.0 | 0.00 | 0.00 | 0.00 | 63 | 1015.4 |
| 20260507135003 | 21 | 252 | 4.8 | 11.3 | 0.00 | 0.00 | 0.00 | 64 | 1015.4 |
| 20260507134500 | 21 | 259 | 6.4 | 12.9 | 0.00 | 0.00 | 0.00 | 63 | 1015.4 |
| 20260507134003 | 21 | 257 | 8.0 | 16.1 | 0.00 | 0.00 | 0.00 | 65 | 1015.5 |
| 20260507133003 | 21 | 232 | 6.4 | 16.1 | 0.00 | 0.00 | 0.00 | 64 | 1015.5 |
| 20260507132003 | 21 | 267 | 6.4 | 14.5 | 0.00 | 0.00 | 0.00 | 65 | 1015.5 |
| 20260507131503 | 21 | 254 | 4.8 | 11.3 | 0.00 | 0.00 | 0.00 | 64 | 1015.5 |
| 20260507130503 | 21 | 270 | 6.4 | 12.9 | 0.00 | 0.00 | 0.00 | 64 | 1015.6 |
| 20260507125500 | 21 | 244 | 3.2 | 11.3 | 0.00 | 0.00 | 0.00 | 62 | 1015.6 |
| 20260507125001 | 21 | 262 | 4.8 | 14.5 | 0.00 | 0.00 | 0.00 | 61 | 1015.6 |
| 20260507124501 | 21 | 273 | 6.4 | 14.5 | 0.00 | 0.00 | 0.00 | 61 | 1015.6 |
| 20260507124000 | 22 | 236 | 4.8 | 12.9 | 0.00 | 0.00 | 0.00 | 60 | 1015.6 |
| 20260507123500 | 22 | 293 | 6.4 | 12.9 | 0.00 | 0.00 | 0.00 | 60 | 1015.6 |
| 20260507123000 | 22 | 219 | 8.0 | 16.1 | 0.00 | 0.00 | 0.00 | 57 | 1015.5 |
| 20260507122459 | 22 | 257 | 8.0 | 16.1 | 0.00 | 0.00 | 0.00 | 58 | 1015.6 |
| 20260507122000 | 22 | 250 | 8.0 | 16.1 | 0.00 | 0.00 | 0.00 | 57 | 1015.6 |
| 20260507121500 | 23 | 251 | 6.4 | 12.9 | 0.00 | 0.00 | 0.00 | 55 | 1015.7 |
| 20260507120459 | 23 | 246 | 6.4 | 12.9 | 0.00 | 0.00 | 0.00 | 54 | 1015.8 |
| 20260507115502 | 23 | 271 | 4.8 | 14.5 | 0.00 | 0.00 | 0.00 | 56 | 1015.8 |
| 20260507115003 | 23 | 232 | 4.8 | 14.5 | 0.00 | 0.00 | 0.00 | 55 | 1015.9 |
| 20260507114503 | 23 | 327 | 4.8 | 16.1 | 0.00 | 0.00 | 0.00 | 53 | 1016.0 |
| 20260507113500 | 22 | 222 | 3.2 | 11.3 | 0.00 | 0.00 | 0.00 | 55 | 1015.8 |
| 20260507113003 | 22 | 200 | 3.2 | 12.9 | 0.00 | 0.00 | 0.00 | 55 | 1015.8 |
| 20260507112503 | 22 | 227 | 3.2 | 12.9 | 0.00 | 0.00 | 0.00 | 56 | 1015.8 |
| 20260507112003 | 22 | 247 | 3.2 | 8.0 | 0.00 | 0.00 | 0.00 | 57 | 1015.9 |
| 20260507111503 | 22 | 51 | 1.6 | 4.8 | 0.00 | 0.00 | 0.00 | 56 | 1015.9 |
| 20260507111003 | 21 | 170 | 1.6 | 4.8 | 0.00 | 0.00 | 0.00 | 56 | 1015.9 |
| 20260507110503 | 21 | 252 | 1.6 | 6.4 | 0.00 | 0.00 | 0.00 | 57 | 1015.9 |
| 20260507110005 | 21 | 13 | 3.2 | 8.0 | 0.00 | 0.00 | 0.00 | 57 | 1015.9 |
| 20260507105504 | 21 | 273 | 4.8 | 12.9 | 0.00 | 0.00 | 0.00 | 57 | 1016.0 |
| 20260507105003 | 21 | 281 | 3.2 | 12.9 | 0.00 | 0.00 | 0.00 | 60 | 1016.1 |
| 20260507104502 | 21 | 182 | 3.2 | 11.3 | 0.00 | 0.00 | 0.00 | 60 | 1016.1 |
| 20260507104004 | 20 | 234 | 3.2 | 11.3 | 0.00 | 0.00 | 0.00 | 60 | 1016.1 |
| 20260507103503 | 20 | 185 | 6.4 | 16.1 | 0.00 | 0.00 | 0.00 | 59 | 1016.0 |
| 20260507103003 | 20 | 244 | 4.8 | 16.1 | 0.00 | 0.00 | 0.00 | 61 | 1016.0 |
| 20260507102503 | 20 | 240 | 1.6 | 6.4 | 0.00 | 0.00 | 0.00 | 66 | 1016.1 |
| 20260507102002 | 19 | 279 | 1.6 | 8.0 | 0.00 | 0.00 | 0.00 | 66 | 1016.1 |
| 20260507101503 | 18 | 250 | 1.6 | 8.0 | 0.00 | 0.00 | 0.00 | 68 | 1016.2 |
| 20260507101003 | 18 | 260 | 3.2 | 6.4 | 0.00 | 0.00 | 0.00 | 68 | 1016.3 |
| 20260507100503 | 18 | 225 | 3.2 | 6.4 | 0.00 | 0.00 | 0.00 | 67 | 1016.3 |
| 20260507100003 | 18 | 140 | 1.6 | 6.4 | 0.00 | 0.00 | 0.00 | 69 | 1016.4 |
| 20260507095502 | 18 | 140 | 0.0 | 6.4 | 0.00 | 0.00 | 0.00 | 68 | 1016.4 |
| 20260507095002 | 17 | 157 | 1.6 | 4.8 | 0.00 | 0.00 | 0.00 | 71 | 1016.4 |
| 20260507094503 | 17 | 227 | 0.0 | 4.8 | 0.00 | 0.00 | 0.00 | 71 | 1016.5 |
| 20260507093001 | 17 | 157 | 1.6 | 4.8 | 0.00 | 0.00 | 0.00 | 70 | 1016.5 |
| 20260507092004 | 17 | 186 | 0.0 | 3.2 | 0.00 | 0.00 | 0.00 | 71 | 1016.4 |
| 20260507091503 | 17 | 215 | 0.0 | 1.6 | 0.00 | 0.00 | 0.00 | 71 | 1016.4 |
| 20260507091002 | 17 | 232 | 0.0 | 4.8 | 0.00 | 0.00 | 0.00 | 71 | 1016.5 |
| 20260507090503 | 17 | 146 | 0.0 | 4.8 | 0.00 | 0.00 | 0.00 | 71 | 1016.4 |
| 20260507090000 | 17 | 152 | 0.0 | 4.8 | 0.00 | 0.00 | 0.00 | 71 | 1016.4 |
| 20260507085003 | 17 | 211 | 0.0 | 4.8 | 0.00 | 0.00 | 0.00 | 68 | 1016.3 |
| 20260507084503 | 17 | 213 | 1.6 | 4.8 | 0.00 | 0.00 | 0.00 | 70 | 1016.3 |
| 20260507084011 | 17 | 148 | 1.6 | 6.4 | 0.00 | 0.00 | 0.00 | 69 | 1016.3 |
| 20260507082503 | 17 | 206 | 1.6 | 6.4 | 0.00 | 0.00 | 0.00 | 73 | 1016.3 |
| 20260507082003 | 17 | 196 | 1.6 | 6.4 | 0.00 | 0.00 | 0.00 | 73 | 1016.4 |
| 20260507081504 | 16 | 209 | 3.2 | 9.7 | 0.00 | 0.00 | 0.00 | 73 | 1016.3 |
| 20260507081003 | 16 | 213 | 4.8 | 9.7 | 0.00 | 0.00 | 0.00 | 71 | 1016.4 |
| 20260507080501 | 16 | 227 | 4.8 | 9.7 | 0.00 | 0.00 | 0.00 | 73 | 1016.3 |
| 20260507080000 | 16 | 226 | 4.8 | 8.0 | 0.00 | 0.00 | 0.00 | 72 | 1016.3 |
| 20260507075500 | 17 | 217 | 3.2 | 8.0 | 0.00 | 0.00 | 0.00 | 72 | 1016.4 |
| 20260507075000 | 17 | 199 | 1.6 | 6.4 | 0.00 | 0.00 | 0.00 | 72 | 1016.4 |
| 20260507074500 | 17 | 244 | 1.6 | 6.4 | 0.00 | 0.00 | 0.00 | 72 | 1016.3 |
| 20260507074003 | 17 | 220 | 1.6 | 6.4 | 0.00 | 0.00 | 0.00 | 73 | 1016.3 |
| 20260507073500 | 17 | 219 | 1.6 | 9.7 | 0.00 | 0.00 | 0.00 | 73 | 1016.2 |
| 20260507073003 | 16 | 237 | 3.2 | 9.7 | 0.00 | 0.00 | 0.00 | 73 | 1016.2 |
| 20260507072503 | 16 | 221 | 3.2 | 6.4 | 0.00 | 0.00 | 0.00 | 75 | 1016.2 |
| 20260507071003 | 16 | 240 | 4.8 | 8.0 | 0.00 | 0.00 | 0.00 | 77 | 1016.2 |
| 20260507070006 | 16 | 247 | 4.8 | 9.7 | 0.00 | 0.00 | 0.00 | 77 | 1016.2 |
| 20260507065506 | 16 | 217 | 4.8 | 9.7 | 0.00 | 0.00 | 0.00 | 77 | 1016.4 |
| 20260507065003 | 16 | 222 | 4.8 | 11.3 | 0.00 | 0.00 | 0.00 | 76 | 1016.4 |
| 20260507064503 | 16 | 229 | 4.8 | 11.3 | 0.00 | 0.00 | 0.00 | 76 | 1016.3 |
| 20260507064003 | 16 | 236 | 4.8 | 11.3 | 0.00 | 0.00 | 0.00 | 76 | 1016.3 |
| 20260507063500 | 16 | 227 | 4.8 | 11.3 | 0.00 | 0.00 | 0.00 | 77 | 1016.3 |
| 20260507063004 | 16 | 232 | 4.8 | 9.7 | 0.00 | 0.00 | 0.00 | 76 | 1016.3 |
| 20260507062503 | 16 | 190 | 4.8 | 12.9 | 0.00 | 0.00 | 0.00 | 76 | 1016.2 |
| 20260507062004 | 16 | 233 | 6.4 | 14.5 | 0.00 | 0.00 | 0.00 | 76 | 1016.1 |
| 20260507061503 | 16 | 220 | 4.8 | 14.5 | 0.00 | 0.00 | 0.00 | 76 | 1016.1 |
| 20260507061001 | 16 | 249 | 4.8 | 9.7 | 0.00 | 0.00 | 0.00 | 76 | 1016.1 |
| 20260507060503 | 16 | 203 | 3.2 | 9.7 | 0.00 | 0.00 | 0.00 | 75 | 1016.1 |
| 20260507060004 | 16 | 209 | 1.6 | 6.4 | 0.00 | 0.00 | 0.00 | 75 | 1016.1 |
| 20260507055502 | 16 | 223 | 1.6 | 6.4 | 0.00 | 0.00 | 0.00 | 75 | 1016.2 |
| 20260507055002 | 16 | 223 | 0.0 | 3.2 | 0.00 | 0.00 | 0.00 | 74 | 1016.1 |
| 20260507054503 | 16 | 200 | 1.6 | 4.8 | 0.00 | 0.00 | 0.00 | 75 | 1016.1 |
| 20260507054003 | 16 | 229 | 1.6 | 12.9 | 0.00 | 0.00 | 0.00 | 75 | 1016.1 |
| 20260507053459 | 16 | 202 | 1.6 | 9.7 | 0.00 | 0.00 | 0.00 | 75 | 1016.1 |
| 20260507053004 | 16 | 205 | 1.6 | 11.3 | 0.00 | 0.00 | 0.00 | 75 | 1016.1 |
| 20260507052500 | 16 | 158 | 3.2 | 6.4 | 0.00 | 0.00 | 0.00 | 76 | 1015.9 |
| 20260507052000 | 16 | 139 | 1.6 | 6.4 | 0.00 | 0.00 | 0.00 | 77 | 1015.9 |
| 20260507051000 | 16 | 152 | 1.6 | 6.4 | 0.00 | 0.00 | 0.00 | 76 | 1015.9 |
| 20260507050503 | 16 | 162 | 1.6 | 8.0 | 0.00 | 0.00 | 0.00 | 76 | 1015.7 |
| 20260507050003 | 15 | 155 | 1.6 | 8.0 | 0.00 | 0.00 | 0.00 | 75 | 1015.8 |
| 20260507045004 | 15 | 147 | 0.0 | 4.8 | 0.00 | 0.00 | 0.00 | 76 | 1015.7 |
| 20260507043959 | 15 | 213 | 0.0 | 3.2 | 0.00 | 0.00 | 0.00 | 77 | 1015.7 |
| 20260507043504 | 15 | 213 | 1.6 | 6.4 | 0.00 | 0.00 | 0.00 | 77 | 1015.7 |
| 20260507043000 | 15 | 210 | 3.2 | 6.4 | 0.00 | 0.00 | 0.00 | 76 | 1015.7 |
| 20260507042503 | 15 | 244 | 3.2 | 6.4 | 0.00 | 0.00 | 0.00 | 75 | 1015.7 |
| 20260507041959 | 15 | 215 | 1.6 | 4.8 | 0.00 | 0.00 | 0.00 | 75 | 1015.6 |
| 20260507041500 | 16 | 218 | 1.6 | 4.8 | 0.00 | 0.00 | 0.00 | 75 | 1015.4 |
| 20260507041000 | 16 | 225 | 3.2 | 8.0 | 0.00 | 0.00 | 0.00 | 75 | 1015.3 |
| 20260507040504 | 16 | 217 | 3.2 | 8.0 | 0.00 | 0.00 | 0.00 | 75 | 1015.4 |
| 20260507040002 | 16 | 211 | 1.6 | 6.4 | 0.00 | 0.00 | 0.00 | 75 | 1015.3 |
| 20260507035500 | 16 | 216 | 0.0 | 6.4 | 0.00 | 0.00 | 0.00 | 75 | 1015.2 |
| 20260507035000 | 16 | 138 | 1.6 | 4.8 | 0.00 | 0.00 | 0.00 | 76 | 1015.1 |
| 20260507034502 | 16 | 138 | 3.2 | 6.4 | 0.00 | 0.00 | 0.00 | 76 | 1015.2 |
| 20260507034002 | 16 | 173 | 1.6 | 6.4 | 0.00 | 0.00 | 0.00 | 77 | 1015.0 |
| 20260507033459 | 15 | 142 | 1.6 | 4.8 | 0.00 | 0.00 | 0.00 | 77 | 1014.9 |
| 20260507033002 | 15 | 142 | 1.6 | 4.8 | 0.00 | 0.00 | 0.00 | 78 | 1015.0 |
| 20260507032000 | 15 | 223 | 0.0 | 1.6 | 0.00 | 0.00 | 0.00 | 79 | 1014.9 |
| 20260507031500 | 16 | 223 | 0.0 | 1.6 | 0.00 | 0.00 | 0.00 | 79 | 1014.8 |
| 20260507031000 | 16 | 223 | 0.0 | 1.6 | 0.00 | 0.00 | 0.00 | 79 | 1014.8 |
| 20260507030005 | 16 | 223 | 0.0 | 1.6 | 0.00 | 0.00 | 0.00 | 79 | 1014.8 |
| 20260507025000 | 16 | 223 | 1.6 | 4.8 | 0.00 | 0.00 | 0.00 | 79 | 1014.6 |
| 20260507024459 | 16 | 223 | 3.2 | 4.8 | 0.00 | 0.00 | 0.00 | 79 | 1014.6 |
| 20260507024000 | 16 | 234 | 1.6 | 4.8 | 0.00 | 0.00 | 0.00 | 79 | 1014.6 |
| 20260507023502 | 16 | 229 | 0.0 | 3.2 | 0.00 | 0.00 | 0.00 | 79 | 1014.6 |
| 20260507022959 | 16 | 240 | 0.0 | 1.6 | 0.00 | 0.00 | 0.00 | 79 | 1014.5 |
| 20260507022459 | 16 | 240 | 0.0 | 0.0 | 0.00 | 0.00 | 0.00 | 79 | 1014.4 |
| 20260507022003 | 16 | 240 | 0.0 | 1.6 | 0.00 | 0.00 | 0.00 | 79 | 1014.3 |
| 20260507021500 | 16 | 240 | 1.6 | 4.8 | 0.00 | 0.00 | 0.00 | 79 | 1014.3 |
| 20260507021000 | 16 | 241 | 3.2 | 6.4 | 0.00 | 0.00 | 0.00 | 79 | 1014.3 |
| 20260507020500 | 16 | 250 | 3.2 | 6.4 | 0.00 | 0.00 | 0.00 | 79 | 1014.3 |
| 20260507020003 | 16 | 262 | 3.2 | 6.4 | 0.00 | 0.00 | 0.00 | 80 | 1014.3 |
| 20260507015500 | 16 | 266 | 1.6 | 4.8 | 0.00 | 0.00 | 0.00 | 79 | 1014.2 |
| 20260507014959 | 16 | 263 | 0.0 | 3.2 | 0.00 | 0.00 | 0.00 | 79 | 1014.1 |
| 20260507014502 | 16 | 292 | 0.0 | 3.2 | 0.00 | 0.00 | 0.00 | 79 | 1014.2 |
| 20260507014000 | 16 | 292 | 0.0 | 3.2 | 0.00 | 0.00 | 0.00 | 78 | 1014.1 |
| 20260507013500 | 16 | 292 | 1.6 | 3.2 | 0.00 | 0.00 | 0.00 | 78 | 1014.0 |
| 20260507013003 | 16 | 292 | 0.0 | 3.2 | 0.00 | 0.00 | 0.00 | 78 | 1014.1 |
| 20260507012502 | 16 | 292 | 0.0 | 3.2 | 0.00 | 0.00 | 0.00 | 78 | 1014.1 |
| 20260507011959 | 16 | 290 | 0.0 | 4.8 | 0.00 | 0.00 | 0.00 | 78 | 1014.0 |
| 20260507011459 | 16 | 294 | 0.0 | 1.6 | 0.00 | 0.00 | 0.00 | 77 | 1013.9 |
| 20260507011002 | 16 | 296 | 0.0 | 1.6 | 0.00 | 0.00 | 0.00 | 77 | 1014.1 |
| 20260507010503 | 16 | 296 | 0.0 | 1.6 | 0.00 | 0.00 | 0.00 | 76 | 1013.9 |
| 20260507010003 | 16 | 296 | 0.0 | 1.6 | 0.00 | 0.00 | 0.00 | 76 | 1013.8 |
| 20260507005502 | 16 | 252 | 1.6 | 4.8 | 0.00 | 0.00 | 0.00 | 76 | 1013.8 |
| 20260507005002 | 16 | 252 | 3.2 | 4.8 | 0.00 | 0.00 | 0.00 | 75 | 1013.9 |
| 20260507004503 | 16 | 252 | 1.6 | 4.8 | 0.00 | 0.00 | 0.00 | 74 | 1013.9 |
| 20260507004002 | 16 | 295 | 0.0 | 3.2 | 0.00 | 0.00 | 0.00 | 74 | 1013.9 |
| 20260507003459 | 16 | 284 | 0.0 | 3.2 | 0.00 | 0.00 | 0.00 | 73 | 1013.8 |
| 20260507003003 | 16 | 285 | 0.0 | 3.2 | 0.00 | 0.00 | 0.00 | 72 | 1013.9 |
| 20260507002501 | 17 | 295 | 0.0 | 3.2 | 0.00 | 0.00 | 0.00 | 72 | 1013.9 |
| 20260507002003 | 17 | 248 | 1.6 | 6.4 | 0.00 | 0.00 | 0.00 | 71 | 1013.9 |
| 20260507001502 | 17 | 286 | 3.2 | 6.4 | 0.00 | 0.00 | 0.00 | 71 | 1013.8 |
| 20260507001000 | 17 | 289 | 3.2 | 4.8 | 0.00 | 0.00 | 0.00 | 70 | 1013.9 |
| 20260507000502 | 17 | 276 | 3.2 | 4.8 | 0.00 | 0.00 | 0.00 | 69 | 1014.0 |
| 20260507000000 | 17 | 257 | 3.2 | 6.4 | 0.00 | 0.00 | 0.00 | 69 | 1013.9 |
| 20260506235500 | 17 | 280 | 3.2 | 8.0 | 0.00 | 0.00 | 0.00 | 68 | 1013.9 |
| 20260506234000 | 18 | 263 | 4.8 | 8.0 | 0.00 | 0.00 | 0.00 | 66 | 1013.9 |
| 20260506233500 | 18 | 261 | 4.8 | 14.5 | 0.00 | 0.00 | 0.00 | 66 | 1013.9 |
| 20260506232959 | 18 | 283 | 6.4 | 12.9 | 0.00 | 0.00 | 0.00 | 66 | 1013.9 |
| 20260506231459 | 18 | 269 | 6.4 | 14.5 | 0.00 | 0.00 | 0.00 | 64 | 1013.8 |
| 20260506230959 | 18 | 266 | 4.8 | 14.5 | 0.00 | 0.00 | 0.00 | 64 | 1013.8 |
| 20260506230500 | 18 | 267 | 4.8 | 9.7 | 0.00 | 0.00 | 0.00 | 63 | 1013.8 |
| 20260506230003 | 18 | 265 | 4.8 | 11.3 | 0.00 | 0.00 | 0.00 | 62 | 1013.7 |
| 20260506225502 | 18 | 271 | 4.8 | 11.3 | 0.00 | 0.00 | 0.00 | 62 | 1013.6 |
| 20260506225000 | 18 | 319 | 4.8 | 14.5 | 0.00 | 0.00 | 0.00 | 61 | 1013.6 |
| 20260506224458 | 18 | 252 | 4.8 | 12.9 | 0.00 | 0.00 | 0.00 | 61 | 1013.5 |
| 20260506223503 | 18 | 265 | 8.0 | 16.1 | 0.00 | 0.00 | 0.00 | 61 | 1013.3 |
| 20260506222958 | 19 | 257 | 6.4 | 12.9 | 0.00 | 0.00 | 0.00 | 60 | 1013.1 |
| 20260506222459 | 18 | 219 | 6.4 | 11.3 | 0.00 | 0.00 | 0.00 | 60 | 1013.0 |
| 20260506222000 | 18 | 216 | 4.8 | 11.3 | 0.00 | 0.00 | 0.00 | 60 | 1013.1 |
| 20260506221502 | 18 | 213 | 3.2 | 9.7 | 0.00 | 0.00 | 0.00 | 60 | 1013.0 |
| 20260506221001 | 18 | 207 | 3.2 | 6.4 | 0.00 | 0.00 | 0.00 | 60 | 1013.1 |
| 20260506220459 | 19 | 219 | 4.8 | 8.0 | 0.00 | 0.00 | 0.00 | 60 | 1013.0 |
| 20260506220003 | 19 | 207 | 4.8 | 8.0 | 0.00 | 0.00 | 0.00 | 60 | 1013.0 |
| 20260506215503 | 19 | 245 | 4.8 | 8.0 | 0.00 | 0.00 | 0.00 | 60 | 1013.0 |
| 20260506214503 | 19 | 211 | 4.8 | 8.0 | 0.00 | 0.00 | 0.00 | 59 | 1012.8 |
| 20260506214003 | 19 | 225 | 4.8 | 6.4 | 0.00 | 0.00 | 0.00 | 59 | 1012.7 |
| 20260506213003 | 19 | 257 | 4.8 | 6.4 | 0.00 | 0.00 | 0.00 | 59 | 1012.7 |
| 20260506212503 | 19 | 243 | 4.8 | 8.0 | 0.00 | 0.00 | 0.00 | 59 | 1012.6 |
| 20260506212003 | 19 | 242 | 4.8 | 8.0 | 0.00 | 0.00 | 0.00 | 59 | 1012.6 |
| 20260506211502 | 19 | 232 | 4.8 | 8.0 | 0.00 | 0.00 | 0.00 | 58 | 1012.7 |
| 20260506211003 | 20 | 211 | 4.8 | 8.0 | 0.00 | 0.00 | 0.00 | 58 | 1012.6 |